Fernie, Canada
Current Conditions -  °F | °C
As of 8:00 AM on Sunday 21 Dec 2014 (Local Time) from CWSW Reporting Station
Light Rain Light Rain  
Wind Chill: 31°   Ceiling: 2500
Heat Index: 36°   Visibility: 12mi
Dew Point: 32°   Wind: 6mph
Humidity: 87%   Direction: 180°S
Pressure: 29.34"   Gusts: NA
Location:  49.51°N, 115.06°W
Report Text: CWSW 211500Z 18005KT 140V210 12SM -RA SCT015 BKN025 02/00 A2934 RMK SF3SC4 SLP963
Loading
Personal Weather Stations






























Interactive Weather Map New forecast layout! Learn more

10-Day Weather Forecast

Advertisements
Track Severe Weather on mobile